Time;durP1;ratioP1;P1;durP2;ratioP2;P2;SDS_P1;SDS_P2;PMS_P1;PMS_P2;Temp;Humidity;BMP_temperature;BMP_pressure;BME280_temperature;BME280_humidity;BME280_pressure;Samples;Min_cycle;Max_cycle;Signal;HPM_P1;HPM_P2
2023/04/21 00:00:33;;;;;;;14.77;13.30;;;6.20;96.90;;;;;;5085723;28;20203;-88
2023/04/21 00:03:04;;;;;;;14.97;13.57;;;6.20;96.00;;;;;;5096271;28;20194;-87
2023/04/21 00:05:31;;;;;;;15.00;13.43;;;6.20;95.40;;;;;;5100469;28;20617;-88
2023/04/21 00:07:57;;;;;;;13.67;12.40;;;6.20;95.00;;;;;;5085160;28;20180;-88
2023/04/21 00:10:23;;;;;;;15.07;13.50;;;6.20;93.90;;;;;;5086390;28;20231;-88
2023/04/21 00:12:48;;;;;;;14.20;12.90;;;6.10;94.80;;;;;;5081940;28;20190;-88
2023/04/21 00:15:14;;;;;;;15.33;13.83;;;6.10;94.50;;;;;;5080328;28;20180;-87
2023/04/21 00:17:40;;;;;;;14.67;13.37;;;5.90;96.30;;;;;;5089885;28;20241;-89
2023/04/21 00:20:07;;;;;;;14.60;13.17;;;5.90;96.40;;;;;;5098605;28;20195;-88
2023/04/21 00:22:33;;;;;;;15.07;13.63;;;5.90;95.00;;;;;;5099450;28;20175;-86
2023/04/21 00:24:59;;;;;;;14.87;13.40;;;5.90;94.90;;;;;;5099512;28;20187;-88
2023/04/21 00:27:24;;;;;;;13.17;11.87;;;5.80;93.40;;;;;;5089757;28;20187;-87
2023/04/21 00:29:50;;;;;;;14.47;13.07;;;5.80;92.90;;;;;;5094302;28;20696;-87
2023/04/21 00:32:15;;;;;;;14.13;11.83;;;5.80;92.40;;;;;;5099877;28;20225;-89
2023/04/21 00:34:41;;;;;;;21.97;14.00;;;5.70;93.70;;;;;;5088149;28;20712;-89
2023/04/21 00:37:06;;;;;;;15.00;12.83;;;5.80;93.50;;;;;;5093310;28;20181;-88
2023/04/21 00:39:32;;;;;;;17.63;13.90;;;5.70;94.10;;;;;;5092594;28;20238;-89
2023/04/21 00:41:58;;;;;;;16.23;14.30;;;5.80;95.00;;;;;;5093528;28;20187;-90
2023/04/21 00:44:23;;;;;;;18.07;12.57;;;5.80;94.10;;;;;;5099374;28;20648;-87
2023/04/21 00:46:49;;;;;;;14.47;13.07;;;5.70;92.60;;;;;;5094546;28;20187;-88
2023/04/21 00:49:15;;;;;;;14.37;13.10;;;5.70;93.40;;;;;;5094692;28;20596;-88
2023/04/21 00:51:40;;;;;;;13.70;12.50;;;5.80;93.70;;;;;;5100102;28;20206;-87
2023/04/21 00:54:08;;;;;;;14.80;13.33;;;5.70;93.20;;;;;;5099936;28;20183;-88
2023/04/21 00:56:35;;;;;;;13.50;12.10;;;5.70;92.60;;;;;;5096344;28;20268;-86
2023/04/21 00:59:01;;;;;;;13.37;12.07;;;5.70;90.60;;;;;;5080815;28;20202;-87
2023/04/21 01:01:28;;;;;;;12.53;11.37;;;5.50;90.30;;;;;;5079719;28;20203;-88
2023/04/21 01:03:58;;;;;;;13.77;12.37;;;5.50;90.40;;;;;;5079971;28;20183;-89
2023/04/21 01:06:24;;;;;;;13.23;11.93;;;5.50;90.20;;;;;;5098819;28;20191;-88
2023/04/21 01:08:52;;;;;;;13.53;12.13;;;5.40;89.80;;;;;;5099247;28;20187;-89
2023/04/21 01:11:18;;;;;;;14.00;12.70;;;5.40;90.30;;;;;;5081017;28;20211;-89
2023/04/21 01:13:43;;;;;;;13.30;12.10;;;5.40;90.90;;;;;;5078344;28;20253;-87
2023/04/21 01:16:16;;;;;;;14.10;12.80;;;5.30;91.30;;;;;;5079303;28;20191;-87
2023/04/21 01:18:42;;;;;;;13.80;12.60;;;5.40;91.00;;;;;;5079415;28;20171;-88
2023/04/21 01:21:07;;;;;;;15.67;14.17;;;5.40;90.40;;;;;;5078220;28;20210;-88
2023/04/21 01:23:33;;;;;;;17.90;16.07;;;5.40;92.00;;;;;;5081379;28;20194;-88
2023/04/21 01:25:58;;;;;;;21.67;19.27;;;5.30;94.10;;;;;;5084332;28;20183;-89
2023/04/21 01:28:25;;;;;;;16.77;15.10;;;5.30;96.70;;;;;;5098619;28;20178;-88
2023/04/21 01:30:51;;;;;;;15.03;13.63;;;5.30;97.80;;;;;;5098446;28;20283;-86
2023/04/21 01:33:18;;;;;;;12.97;11.63;;;5.10;94.20;;;;;;5090098;28;20179;-88
2023/04/21 01:35:44;;;;;;;13.23;11.93;;;4.90;93.90;;;;;;5091803;28;20203;-89
2023/04/21 01:38:10;;;;;;;14.07;12.77;;;4.90;93.80;;;;;;5097934;28;20178;-86
2023/04/21 01:40:37;;;;;;;14.33;12.97;;;4.90;93.40;;;;;;5088946;28;20203;-89
2023/04/21 01:43:03;;;;;;;13.17;11.97;;;4.90;93.90;;;;;;5098045;28;20174;-88
2023/04/21 01:45:30;;;;;;;13.77;12.47;;;5.10;92.80;;;;;;5097821;28;20187;-87
2023/04/21 01:47:55;;;;;;;12.83;11.70;;;5.20;93.10;;;;;;5089206;28;20187;-89
2023/04/21 01:50:21;;;;;;;14.07;12.70;;;5.10;91.60;;;;;;5098413;28;20644;-87
2023/04/21 01:52:47;;;;;;;15.33;13.83;;;5.10;91.80;;;;;;5100344;28;20258;-88
2023/04/21 01:55:13;;;;;;;15.97;13.10;;;5.10;91.90;;;;;;5099695;28;20331;-88
2023/04/21 01:57:39;;;;;;;14.40;12.97;;;5.20;91.80;;;;;;5100323;28;20175;-88
2023/04/21 02:00:06;;;;;;;14.17;12.77;;;5.10;89.90;;;;;;5085904;28;20428;-87
2023/04/21 02:02:31;;;;;;;13.33;12.13;;;5.00;89.50;;;;;;5094818;28;20247;-87
2023/04/21 02:04:57;;;;;;;12.60;11.40;;;4.90;90.40;;;;;;5079832;28;20621;-88
2023/04/21 02:07:23;;;;;;;13.17;11.87;;;4.80;90.90;;;;;;5083839;28;20179;-88
2023/04/21 02:09:48;;;;;;;13.57;12.27;;;4.80;90.00;;;;;;5101169;28;20217;-87
2023/04/21 02:12:14;;;;;;;14.23;12.87;;;4.90;90.20;;;;;;5097217;28;20179;-89
2023/04/21 02:14:40;;;;;;;15.73;14.27;;;4.80;90.70;;;;;;5079924;28;20183;-87
2023/04/21 02:17:05;;;;;;;16.50;14.87;;;4.90;92.20;;;;;;5086313;28;20179;-87
2023/04/21 02:19:31;;;;;;;13.63;12.33;;;4.80;93.30;;;;;;5098117;28;20206;-88
2023/04/21 02:21:57;;;;;;;13.47;12.07;;;4.80;92.60;;;;;;5093453;28;20184;-89
2023/04/21 02:24:22;;;;;;;13.90;12.60;;;4.60;91.80;;;;;;5096396;28;20190;-86
2023/04/21 02:26:48;;;;;;;12.57;11.47;;;4.60;91.30;;;;;;5098365;28;20191;-88
2023/04/21 02:29:14;;;;;;;13.60;12.33;;;4.50;90.80;;;;;;5098754;28;20240;-88
2023/04/21 02:31:40;;;;;;;14.07;12.73;;;4.50;90.20;;;;;;5098994;28;20262;-90
2023/04/21 02:34:06;;;;;;;13.77;12.47;;;4.60;90.20;;;;;;5098920;28;20186;-87
2023/04/21 02:36:32;;;;;;;13.73;12.33;;;4.60;90.10;;;;;;5097417;28;20234;-89
2023/04/21 02:38:58;;;;;;;14.00;12.70;;;4.60;90.20;;;;;;5098904;28;20210;-89
2023/04/21 02:41:23;;;;;;;13.43;12.13;;;4.70;89.00;;;;;;5100111;28;20222;-88
2023/04/21 02:43:49;;;;;;;13.23;11.93;;;4.70;89.40;;;;;;5100490;28;20175;-88
2023/04/21 02:46:15;;;;;;;13.50;12.20;;;4.60;88.50;;;;;;5099903;28;20222;-88
2023/04/21 02:48:40;;;;;;;12.60;11.40;;;4.50;89.10;;;;;;5100833;28;20193;-89
2023/04/21 02:51:12;;;;;;;13.97;12.60;;;4.50;90.10;;;;;;5092909;28;20220;-88
2023/04/21 02:53:38;;;;;;;14.53;13.17;;;4.50;91.70;;;;;;5081170;28;20160;-88
2023/04/21 02:56:04;;;;;;;15.27;13.77;;;4.50;93.30;;;;;;5080632;28;20191;-88
2023/04/21 02:58:30;;;;;;;13.67;12.33;;;4.40;93.30;;;;;;5081825;28;20172;-88
2023/04/21 03:00:56;;;;;;;14.17;12.77;;;3.80;91.30;;;;;;5091934;28;20290;-88
2023/04/21 03:03:21;;;;;;;14.83;13.33;;;3.60;96.00;;;;;;5107220;28;20195;-90
2023/04/21 03:05:47;;;;;;;15.10;13.57;;;3.60;96.90;;;;;;5108763;28;20329;-90
2023/04/21 03:08:13;;;;;;;14.93;13.53;;;3.70;98.30;;;;;;5118853;28;20177;-90
2023/04/21 03:10:39;;;;;;;14.50;13.07;;;3.80;99.10;;;;;;5109425;28;20229;-89
2023/04/21 03:13:04;;;;;;;13.93;12.53;;;3.80;99.60;;;;;;5097199;28;20182;-89
2023/04/21 03:15:30;;;;;;;14.23;12.80;;;3.80;96.90;;;;;;5103110;28;20190;-88
2023/04/21 03:17:56;;;;;;;15.13;12.83;;;3.80;96.50;;;;;;5093730;28;20172;-86
2023/04/21 03:20:21;;;;;;;13.97;12.67;;;3.80;94.50;;;;;;5083178;28;20685;-86
2023/04/21 03:22:47;;;;;;;13.33;12.07;;;3.70;95.00;;;;;;5096383;28;20263;-88
2023/04/21 03:25:13;;;;;;;15.30;13.70;;;3.80;94.20;;;;;;5103537;28;20182;-88
2023/04/21 03:27:38;;;;;;;16.97;15.27;;;4.00;96.10;;;;;;5091082;28;20187;-89
2023/04/21 03:30:05;;;;;;;16.07;14.37;;;4.00;97.20;;;;;;5082108;28;20573;-88
2023/04/21 03:32:31;;;;;;;17.03;15.20;;;4.10;98.20;;;;;;5079896;28;20171;-88
2023/04/21 03:34:57;;;;;;;13.63;12.23;;;4.10;97.10;;;;;;5081142;28;20255;-89
2023/04/21 03:37:22;;;;;;;14.07;12.70;;;4.10;91.80;;;;;;5089393;28;20272;-85
2023/04/21 03:39:48;;;;;;;14.17;12.77;;;4.00;91.90;;;;;;5080993;28;20211;-88
2023/04/21 03:42:14;;;;;;;15.43;13.93;;;4.00;92.70;;;;;;5102870;28;20187;-89
2023/04/21 03:44:39;;;;;;;15.10;13.53;;;4.00;92.90;;;;;;5102369;28;20210;-89
2023/04/21 03:47:05;;;;;;;15.53;14.03;;;3.90;93.30;;;;;;5090409;28;20187;-88
2023/04/21 03:49:33;;;;;;;14.73;13.23;;;3.90;94.90;;;;;;5085845;28;20750;-88
2023/04/21 03:51:59;;;;;;;15.40;13.90;;;3.90;93.10;;;;;;5095765;28;20199;-88
2023/04/21 03:54:24;;;;;;;13.83;12.53;;;3.80;92.70;;;;;;5099635;28;20179;-89
2023/04/21 03:56:50;;;;;;;13.80;12.50;;;3.80;91.70;;;;;;5100468;28;20163;-88
2023/04/21 03:59:16;;;;;;;13.77;12.43;;;3.80;91.20;;;;;;5101159;28;20194;-89
2023/04/21 04:01:42;;;;;;;13.97;12.57;;;3.80;90.70;;;;;;5090748;28;20187;-88
2023/04/21 04:04:07;;;;;;;12.87;11.63;;;3.70;91.40;;;;;;5093309;28;20182;-88
2023/04/21 04:06:34;;;;;;;15.13;11.80;;;3.50;90.40;;;;;;5104633;28;20167;-90
2023/04/21 04:09:03;;;;;;;13.20;11.90;;;3.50;92.50;;;;;;5099074;28;20194;-89
2023/04/21 04:11:29;;;;;;;15.63;14.17;;;3.50;92.80;;;;;;5098229;28;20214;-88
2023/04/21 04:13:55;;;;;;;14.23;12.70;;;3.50;94.50;;;;;;5102145;28;20199;-88
2023/04/21 04:16:21;;;;;;;14.13;12.73;;;3.50;93.60;;;;;;5082273;28;20207;-87
2023/04/21 04:18:46;;;;;;;13.73;12.43;;;3.50;93.30;;;;;;5078212;28;20168;-88
2023/04/21 04:21:12;;;;;;;13.30;12.00;;;3.50;92.70;;;;;;5082437;28;20196;-88
2023/04/21 04:23:37;;;;;;;13.53;12.13;;;3.50;92.40;;;;;;5077992;28;20453;-87
2023/04/21 04:26:04;;;;;;;13.17;11.97;;;3.50;91.90;;;;;;5090214;28;20187;-88
2023/04/21 04:28:30;;;;;;;13.47;12.17;;;3.50;91.80;;;;;;5095389;28;20648;-86
2023/04/21 04:30:56;;;;;;;13.70;12.30;;;3.50;92.90;;;;;;5096080;28;20715;-87
2023/04/21 04:33:21;;;;;;;15.80;14.07;;;3.60;92.60;;;;;;5091220;28;20167;-86
2023/04/21 04:35:47;;;;;;;15.13;13.63;;;3.70;93.50;;;;;;5097206;28;20191;-87
2023/04/21 04:38:16;;;;;;;15.57;13.97;;;3.50;92.40;;;;;;5100885;28;20380;-86
2023/04/21 04:40:42;;;;;;;15.93;14.23;;;3.40;93.80;;;;;;5080249;28;20211;-87
2023/04/21 04:43:09;;;;;;;16.90;15.10;;;3.40;96.00;;;;;;5079604;28;20191;-87
2023/04/21 04:45:36;;;;;;;17.83;16.03;;;3.40;97.40;;;;;;5097313;28;20221;-87
2023/04/21 04:48:02;;;;;;;16.97;15.17;;;3.40;98.10;;;;;;5099053;28;20782;-88
2023/04/21 04:50:28;;;;;;;15.23;13.73;;;3.50;98.30;;;;;;5099595;28;20213;-87
2023/04/21 04:52:55;;;;;;;16.83;13.73;;;3.60;97.20;;;;;;5098549;28;20179;-87
2023/04/21 04:55:21;;;;;;;15.33;13.07;;;3.50;93.90;;;;;;5099480;28;20199;-86
2023/04/21 04:57:46;;;;;;;16.93;13.07;;;3.40;94.30;;;;;;5080492;28;20271;-86
2023/04/21 05:00:13;;;;;;;15.80;14.13;;;3.30;94.40;;;;;;5078054;28;20550;-86
2023/04/21 05:02:39;;;;;;;15.50;12.63;;;3.20;95.50;;;;;;5080199;28;20179;-86
2023/04/21 05:05:06;;;;;;;14.20;12.70;;;3.20;95.10;;;;;;5079450;28;20179;-87
2023/04/21 05:07:32;;;;;;;18.50;13.87;;;3.40;95.20;;;;;;5095731;28;20664;-87
2023/04/21 05:09:58;;;;;;;16.03;13.57;;;3.40;95.10;;;;;;5096946;28;20218;-86
2023/04/21 05:12:24;;;;;;;18.53;13.13;;;3.40;92.20;;;;;;5084307;28;20202;-86
2023/04/21 05:14:49;;;;;;;17.93;14.13;;;3.30;92.60;;;;;;5088210;28;20203;-87
2023/04/21 05:17:15;;;;;;;14.70;13.20;;;3.30;92.50;;;;;;5083167;28;20183;-88
2023/04/21 05:19:40;;;;;;;16.30;14.67;;;3.40;93.70;;;;;;5097969;28;20235;-89
2023/04/21 05:22:06;;;;;;;22.83;15.53;;;3.50;95.30;;;;;;5098571;28;20179;-86
2023/04/21 05:24:33;;;;;;;15.60;14.00;;;3.40;93.10;;;;;;5097645;28;20236;-86
2023/04/21 05:26:58;;;;;;;16.63;14.23;;;3.30;93.90;;;;;;5097938;28;20182;-87
2023/04/21 05:29:24;;;;;;;17.53;14.40;;;3.30;93.90;;;;;;5096511;28;20179;-87
2023/04/21 05:31:50;;;;;;;16.97;14.30;;;3.50;93.80;;;;;;5080313;28;20233;-88
2023/04/21 05:34:15;;;;;;;14.77;12.47;;;3.40;92.30;;;;;;5093493;28;20297;-87
2023/04/21 05:36:42;;;;;;;20.80;14.53;;;3.40;92.20;;;;;;5098975;28;20183;-87
2023/04/21 05:39:08;;;;;;;18.43;16.63;;;3.40;93.60;;;;;;5099578;28;20245;-87
2023/04/21 05:41:33;;;;;;;15.87;13.00;;;3.40;93.50;;;;;;5098327;28;20194;-87
2023/04/21 05:43:59;;;;;;;14.43;13.03;;;3.50;93.80;;;;;;5098719;28;20175;-88
2023/04/21 05:46:25;;;;;;;16.50;14.53;;;3.40;93.50;;;;;;5080413;28;20203;-86
2023/04/21 05:48:50;;;;;;;18.00;13.43;;;3.40;94.70;;;;;;5079734;28;20183;-84
2023/04/21 05:51:16;;;;;;;20.43;14.03;;;3.30;93.80;;;;;;5079227;28;20214;-87
2023/04/21 05:53:43;;;;;;;14.23;12.57;;;3.20;94.50;;;;;;5090984;28;20263;-87
2023/04/21 05:56:10;;;;;;;15.83;13.77;;;3.10;95.50;;;;;;5038333;28;1096954;-87
2023/04/21 05:58:36;;;;;;;15.67;13.90;;;3.00;96.90;;;;;;5089328;28;20207;-85
2023/04/21 06:01:02;;;;;;;14.50;13.10;;;3.10;96.50;;;;;;5090025;28;20268;-87
2023/04/21 06:03:30;;;;;;;15.17;13.57;;;3.10;97.20;;;;;;5099267;28;20274;-88
2023/04/21 06:05:57;;;;;;;17.03;15.23;;;3.30;96.30;;;;;;5099618;28;20266;-85
2023/04/21 06:08:23;;;;;;;12.33;11.10;;;3.40;96.10;;;;;;5097961;28;20755;-87
2023/04/21 06:10:48;;;;;;;18.63;14.53;;;3.50;99.10;;;;;;5097097;28;20228;-87
2023/04/21 06:13:14;;;;;;;15.67;14.10;;;3.60;97.10;;;;;;5098149;28;20186;-86
2023/04/21 06:15:40;;;;;;;16.03;14.23;;;3.60;95.50;;;;;;5097084;28;20207;-88
2023/04/21 06:18:06;;;;;;;16.97;12.80;;;3.60;95.30;;;;;;5097944;28;20273;-86
2023/04/21 06:20:31;;;;;;;15.37;13.77;;;3.40;94.70;;;;;;5089601;28;20554;-85
2023/04/21 06:22:57;;;;;;;14.60;13.10;;;3.30;96.10;;;;;;5077786;28;20589;-86
2023/04/21 06:25:23;;;;;;;14.33;12.87;;;3.40;96.50;;;;;;5078738;28;20176;-87
2023/04/21 06:27:48;;;;;;;17.70;14.27;;;3.50;96.40;;;;;;5077151;28;20858;-86
2023/04/21 06:30:14;;;;;;;18.97;14.67;;;3.60;98.30;;;;;;5093020;28;20206;-89
2023/04/21 06:32:40;;;;;;;16.33;14.73;;;3.70;99.90;;;;;;5083717;28;20705;-87
2023/04/21 06:35:06;;;;;;;19.13;17.13;;;3.80;99.90;;;;;;5082436;28;20194;-85
2023/04/21 06:37:31;;;;;;;18.00;16.27;;;3.90;99.90;;;;;;5084673;28;20633;-88
2023/04/21 06:39:57;;;;;;;29.23;26.00;;;4.10;99.90;;;;;;5084462;28;20214;-87
2023/04/21 06:42:23;;;;;;;28.83;25.37;;;4.30;99.90;;;;;;5083619;28;20214;-87
2023/04/21 06:44:48;;;;;;;21.10;19.03;;;4.60;99.90;;;;;;5088266;28;20195;-86
2023/04/21 06:47:15;;;;;;;20.03;17.93;;;4.80;99.90;;;;;;5082914;28;20182;-87
2023/04/21 06:49:41;;;;;;;19.47;17.33;;;4.90;99.90;;;;;;5082565;28;20198;-87
2023/04/21 06:52:06;;;;;;;17.30;15.40;;;5.00;99.90;;;;;;5083246;28;20176;-87
2023/04/21 06:54:32;;;;;;;18.77;16.73;;;5.20;99.90;;;;;;5083961;28;20810;-86
2023/04/21 06:56:58;;;;;;;19.70;15.47;;;5.30;99.90;;;;;;5083559;28;20168;-87
2023/04/21 06:59:24;;;;;;;15.50;14.00;;;5.50;99.90;;;;;;5088152;28;20548;-87
2023/04/21 07:01:51;;;;;;;14.80;13.40;;;5.50;99.90;;;;;;5101062;28;20308;-88
2023/04/21 07:04:17;;;;;;;14.67;13.23;;;5.70;99.90;;;;;;5101610;28;20663;-87
2023/04/21 07:06:43;;;;;;;15.43;13.67;;;5.90;99.90;;;;;;5103065;28;20175;-87
2023/04/21 07:09:09;;;;;;;15.80;14.10;;;6.00;99.90;;;;;;5096891;28;20202;-87
2023/04/21 07:11:34;;;;;;;15.87;14.17;;;6.20;99.90;;;;;;5100325;28;20270;-89
2023/04/21 07:14:01;;;;;;;15.00;13.50;;;6.30;99.90;;;;;;5083637;28;20198;-89
2023/04/21 07:16:27;;;;;;;14.20;12.80;;;6.30;99.90;;;;;;5079950;28;20317;-87
2023/04/21 07:18:53;;;;;;;13.90;12.60;;;6.40;99.90;;;;;;5081764;28;20233;-87
2023/04/21 07:21:18;;;;;;;14.50;12.87;;;6.50;99.90;;;;;;5082815;28;20207;-89
2023/04/21 07:23:44;;;;;;;13.60;12.23;;;6.60;99.90;;;;;;5084251;28;20184;-86
2023/04/21 07:26:10;;;;;;;14.47;12.63;;;6.70;99.90;;;;;;5094793;28;20191;-88
2023/04/21 07:28:37;;;;;;;12.57;11.37;;;6.90;99.90;;;;;;5103482;28;20221;-88
2023/04/21 07:31:03;;;;;;;13.33;11.93;;;7.00;99.90;;;;;;5103536;28;20225;-88
2023/04/21 07:33:29;;;;;;;13.60;12.30;;;7.10;98.50;;;;;;5103068;28;20186;-89
2023/04/21 07:35:54;;;;;;;16.27;13.70;;;7.20;98.40;;;;;;5101164;28;20179;-86
2023/04/21 07:38:20;;;;;;;14.53;13.23;;;7.20;97.40;;;;;;5085290;28;20187;-88
2023/04/21 07:40:46;;;;;;;14.47;13.17;;;7.40;98.20;;;;;;5081427;28;20207;-89
2023/04/21 07:43:11;;;;;;;15.20;13.60;;;7.50;98.20;;;;;;5082393;28;20634;-87
2023/04/21 07:45:37;;;;;;;14.97;13.50;;;7.70;97.70;;;;;;5099712;28;20190;-89
2023/04/21 07:48:04;;;;;;;14.47;13.00;;;7.80;95.60;;;;;;5102818;28;20591;-88
2023/04/21 07:50:30;;;;;;;15.63;13.60;;;8.00;95.10;;;;;;5099561;28;20203;-87
2023/04/21 07:52:56;;;;;;;15.53;13.90;;;8.10;94.60;;;;;;5082828;28;20187;-87
2023/04/21 07:55:22;;;;;;;14.80;13.30;;;8.30;93.90;;;;;;5080953;28;20195;-88
2023/04/21 07:57:47;;;;;;;15.43;13.83;;;8.50;93.10;;;;;;5080835;28;20179;-88
2023/04/21 08:00:14;;;;;;;15.30;13.90;;;8.60;92.30;;;;;;5082992;28;20216;-87
2023/04/21 08:02:40;;;;;;;15.33;13.83;;;8.80;90.80;;;;;;5101909;28;20182;-87
2023/04/21 08:05:05;;;;;;;16.63;14.97;;;8.90;91.80;;;;;;5102097;28;20229;-88
2023/04/21 08:07:31;;;;;;;15.23;13.73;;;9.20;89.50;;;;;;5101508;28;20194;-87
2023/04/21 08:09:57;;;;;;;15.13;13.20;;;9.40;89.20;;;;;;5102532;28;20203;-88
2023/04/21 08:12:23;;;;;;;13.33;11.93;;;9.60;88.00;;;;;;5101557;28;20232;-88
2023/04/21 08:14:48;;;;;;;13.40;12.10;;;9.60;88.50;;;;;;5100432;28;20195;-87
2023/04/21 08:17:14;;;;;;;7.53;6.83;;;10.00;88.30;;;;;;5098329;28;20182;-89
2023/04/21 08:19:40;;;;;;;5.13;4.63;;;10.40;83.10;;;;;;5098843;28;20614;-88
2023/04/21 08:22:05;;;;;;;5.70;5.20;;;10.70;77.90;;;;;;5101218;28;20237;-86
2023/04/21 08:24:31;;;;;;;5.70;5.20;;;11.10;79.20;;;;;;5101416;28;20179;-87
2023/04/21 08:26:57;;;;;;;7.10;5.37;;;11.20;77.00;;;;;;5100829;28;20171;-88
2023/04/21 08:29:22;;;;;;;5.47;5.07;;;11.40;75.80;;;;;;5099435;28;20184;-86
2023/04/21 08:31:48;;;;;;;4.70;4.30;;;11.70;74.30;;;;;;5100081;28;20208;-87
2023/04/21 08:34:14;;;;;;;4.57;4.20;;;11.90;71.40;;;;;;5099470;28;20253;-87
2023/04/21 08:36:41;;;;;;;5.33;4.53;;;12.00;70.20;;;;;;5099844;28;20215;-88
2023/04/21 08:39:07;;;;;;;4.73;4.33;;;12.10;69.10;;;;;;5100941;28;20163;-88
2023/04/21 08:41:33;;;;;;;4.13;3.83;;;12.10;70.50;;;;;;5100839;28;20718;-88
2023/04/21 08:43:58;;;;;;;4.77;4.37;;;12.20;70.10;;;;;;5097049;28;20189;-87
2023/04/21 08:46:26;;;;;;;5.20;4.80;;;12.20;70.30;;;;;;5098937;28;20201;-88
2023/04/21 08:48:52;;;;;;;4.80;4.30;;;12.40;69.60;;;;;;5099898;28;20178;-88
2023/04/21 08:51:22;;;;;;;4.97;4.57;;;12.60;66.80;;;;;;5079728;28;20583;-88
2023/04/21 08:53:48;;;;;;;5.47;5.07;;;12.70;67.40;;;;;;5079170;28;20162;-88
2023/04/21 08:56:14;;;;;;;5.73;5.27;;;12.70;67.10;;;;;;5080203;28;20506;-89
2023/04/21 08:58:40;;;;;;;5.90;5.40;;;12.60;68.00;;;;;;5080846;28;20178;-88
2023/04/21 09:01:06;;;;;;;5.73;5.23;;;12.80;68.30;;;;;;5080352;28;20260;-88
2023/04/21 09:03:32;;;;;;;5.43;5.03;;;13.10;66.10;;;;;;5079067;28;20197;-87
2023/04/21 09:06:04;;;;;;;6.03;5.53;;;13.20;65.60;;;;;;5079188;28;20273;-87
2023/04/21 09:08:31;;;;;;;5.80;5.23;;;13.30;65.50;;;;;;5081088;28;20179;-88
2023/04/21 09:10:58;;;;;;;6.13;5.53;;;13.30;65.40;;;;;;5100734;28;20219;-88
2023/04/21 09:13:34;;;;;;;6.37;5.87;;;13.50;64.40;;;;;;5102496;28;20186;-88
2023/04/21 09:16:02;;;;;;;5.90;5.30;;;13.70;63.90;;;;;;5100072;28;20204;-89
2023/04/21 09:18:34;;;;;;;6.60;6.00;;;13.60;64.80;;;;;;5100869;28;20538;-88
2023/04/21 09:21:09;;;;;;;6.17;5.67;;;13.90;63.40;;;;;;5101059;28;20204;-88
2023/04/21 09:23:42;;;;;;;5.80;5.30;;;14.00;64.70;;;;;;5099852;28;20198;-87
2023/04/21 09:26:09;;;;;;;7.13;5.33;;;14.20;61.60;;;;;;5095542;28;20259;-88
2023/04/21 09:28:34;;;;;;;5.77;5.27;;;14.20;60.90;;;;;;5102304;28;20194;-87
2023/04/21 09:31:00;;;;;;;5.47;5.03;;;14.20;62.10;;;;;;5092274;28;20209;-87
2023/04/21 09:33:26;;;;;;;6.43;5.93;;;14.30;62.50;;;;;;5081942;28;20232;-87
2023/04/21 09:35:51;;;;;;;6.00;5.43;;;14.50;60.70;;;;;;5081507;28;20172;-88
2023/04/21 09:38:21;;;;;;;5.23;4.73;;;14.60;60.00;;;;;;5099526;28;20180;-88
2023/04/21 09:40:58;;;;;;;6.37;5.70;;;14.70;60.10;;;;;;5103178;28;20191;-88
2023/04/21 09:43:24;;;;;;;5.67;5.17;;;14.60;60.40;;;;;;5102810;28;20194;-85
2023/04/21 09:45:51;;;;;;;5.50;5.00;;;14.60;60.50;;;;;;5101398;28;20179;-88
2023/04/21 09:48:17;;;;;;;5.90;5.40;;;14.80;59.60;;;;;;5100623;28;20181;-87
2023/04/21 09:50:45;;;;;;;6.93;5.20;;;14.90;62.20;;;;;;5099275;28;20208;-89
2023/04/21 09:53:15;;;;;;;7.03;5.23;;;15.10;59.80;;;;;;5083950;28;20170;-87
2023/04/21 09:55:42;;;;;;;9.00;6.00;;;15.20;59.00;;;;;;5083477;28;20190;-89
2023/04/21 09:58:11;;;;;;;5.23;4.83;;;15.20;59.40;;;;;;5082603;28;20573;-87
2023/04/21 10:00:38;;;;;;;5.97;5.43;;;15.40;59.70;;;;;;5104107;28;20188;-88
2023/04/21 10:03:09;;;;;;;5.30;4.80;;;15.60;59.00;;;;;;5106898;28;20166;-89
2023/04/21 10:05:36;;;;;;;4.90;4.50;;;15.80;58.40;;;;;;5109505;28;20168;-87
2023/04/21 10:08:02;;;;;;;4.93;4.53;;;16.00;58.70;;;;;;5093837;28;20190;-87
2023/04/21 10:10:32;;;;;;;6.13;5.57;;;16.30;56.80;;;;;;5083839;28;20215;-88
2023/04/21 10:12:58;;;;;;;5.70;4.93;;;16.30;57.40;;;;;;5084309;28;20187;-87
2023/04/21 10:15:31;;;;;;;4.90;4.50;;;16.60;57.60;;;;;;5099979;28;20200;-87
2023/04/21 10:18:15;;;;;;;5.23;4.83;;;16.90;55.30;;;;;;5105502;28;20175;-85
2023/04/21 10:20:57;;;;;;;5.47;4.77;;;17.10;54.20;;;;;;5096458;28;20216;-86
2023/04/21 10:23:43;;;;;;;5.17;4.77;;;17.00;54.00;;;;;;5085233;28;20206;-88
2023/04/21 10:26:11;;;;;;;7.60;5.60;;;16.90;54.60;;;;;;5084116;28;20170;-88
2023/04/21 10:28:59;;;;;;;4.33;3.93;;;17.00;54.10;;;;;;5084751;28;20248;-87
2023/04/21 10:31:49;;;;;;;4.17;3.80;;;17.10;53.70;;;;;;5087809;28;20215;-88
2023/04/21 10:34:17;;;;;;;3.90;3.60;;;17.30;53.60;;;;;;5107059;28;20171;-87
2023/04/21 10:36:46;;;;;;;5.23;4.47;;;17.50;53.50;;;;;;5093447;28;20176;-88
2023/04/21 10:39:40;;;;;;;4.70;4.30;;;17.90;52.60;;;;;;5105822;28;20182;-89
2023/04/21 10:42:11;;;;;;;4.67;4.27;;;17.80;51.20;;;;;;5104531;28;20178;-87
2023/04/21 10:44:51;;;;;;;4.03;3.73;;;17.80;51.40;;;;;;5105084;28;20205;-90
2023/04/21 10:47:32;;;;;;;3.87;3.43;;;18.00;50.40;;;;;;5103949;28;20161;-88
2023/04/21 10:49:59;;;;;;;3.97;3.67;;;18.10;49.10;;;;;;5103573;28;20234;-89
2023/04/21 10:52:34;;;;;;;5.80;3.97;;;18.20;50.30;;;;;;5105140;28;20220;-88
2023/04/21 10:55:00;;;;;;;4.32;3.90;;;18.40;50.30;;;;;;5105392;28;20194;-88
2023/04/21 10:57:31;;;;;;;4.95;4.00;;;18.70;49.00;;;;;;5105486;28;20654;-90
2023/04/21 10:59:57;;;;;;;5.05;4.22;;;19.00;49.20;;;;;;5106072;28;20751;-85
2023/04/21 11:02:22;;;;;;;4.03;3.73;;;18.90;47.70;;;;;;5110287;28;20181;-88
2023/04/21 11:04:53;;;;;;;3.83;3.60;;;18.80;48.50;;;;;;5113955;28;20193;-87
2023/04/21 11:07:22;;;;;;;4.38;3.90;;;18.90;48.70;;;;;;5107515;28;20321;-87
2023/04/21 11:10:05;;;;;;;4.13;3.83;;;19.00;48.20;;;;;;5111526;28;20213;-89
2023/04/21 11:12:34;;;;;;;3.90;3.60;;;19.00;47.90;;;;;;5104593;28;20206;-89
2023/04/21 11:15:04;;;;;;;5.28;4.03;;;19.00;48.80;;;;;;5102827;28;20185;-86
2023/04/21 11:17:30;;;;;;;4.05;3.75;;;19.30;47.60;;;;;;5103939;28;20195;-87
2023/04/21 11:19:56;;;;;;;4.78;3.60;;;19.50;47.10;;;;;;5105803;28;20273;-87
2023/04/21 11:22:25;;;;;;;5.07;4.20;;;19.70;46.80;;;;;;5107593;28;20229;-88
2023/04/21 11:24:56;;;;;;;4.25;3.83;;;19.80;45.70;;;;;;5106556;28;20649;-88
2023/04/21 11:27:22;;;;;;;3.63;3.33;;;20.10;45.90;;;;;;5105930;28;20250;-87
2023/04/21 11:29:49;;;;;;;3.75;3.10;;;20.40;44.70;;;;;;5105991;28;20199;-87
2023/04/21 11:32:17;;;;;;;4.30;4.00;;;20.80;44.00;;;;;;5105389;28;20179;-89
2023/04/21 11:34:43;;;;;;;3.83;3.53;;;21.00;42.70;;;;;;5104817;28;20513;-88
2023/04/21 11:37:13;;;;;;;4.25;3.95;;;20.60;44.10;;;;;;5105776;28;20809;-87
2023/04/21 11:39:40;;;;;;;3.63;3.42;;;20.60;43.60;;;;;;5106214;28;20203;-88
2023/04/21 11:42:06;;;;;;;3.83;3.53;;;20.70;42.10;;;;;;5107286;28;20659;-88
2023/04/21 11:44:52;;;;;;;4.03;3.63;;;20.70;42.30;;;;;;5105388;28;20187;-87
2023/04/21 11:47:21;;;;;;;4.13;3.83;;;20.90;43.40;;;;;;5100777;28;20171;-89
2023/04/21 11:49:54;;;;;;;5.28;4.30;;;21.00;41.60;;;;;;5086659;28;20215;-89
2023/04/21 11:52:32;;;;;;;4.30;3.90;;;21.20;42.30;;;;;;5085739;28;20167;-90
2023/04/21 11:55:02;;;;;;;4.35;4.03;;;21.60;40.30;;;;;;5083758;28;20246;-90
2023/04/21 11:57:29;;;;;;;4.20;3.90;;;21.40;40.20;;;;;;5084618;28;20228;-89
2023/04/21 11:59:58;;;;;;;4.60;4.22;;;21.70;41.10;;;;;;5083340;28;20197;-88
2023/04/21 12:02:28;;;;;;;4.80;4.50;;;21.50;40.30;;;;;;5084115;28;20189;-88
2023/04/21 12:04:58;;;;;;;5.10;4.60;;;21.70;39.90;;;;;;5103347;28;20166;-89
2023/04/21 12:07:24;;;;;;;4.82;4.40;;;21.70;40.50;;;;;;5102340;28;20194;-88
2023/04/21 12:09:53;;;;;;;4.07;3.78;;;21.90;38.40;;;;;;5102875;28;20237;-88
2023/04/21 12:12:20;;;;;;;4.68;4.38;;;21.90;39.30;;;;;;5106697;28;20175;-88
2023/04/21 12:14:46;;;;;;;4.82;4.47;;;22.20;39.70;;;;;;5105769;28;20175;-88
2023/04/21 12:17:11;;;;;;;4.97;4.57;;;22.30;38.50;;;;;;5105809;28;20180;-91
2023/04/21 12:19:39;;;;;;;5.40;5.00;;;22.30;40.90;;;;;;5106285;28;20194;-90
2023/04/21 12:22:10;;;;;;;5.50;5.00;;;22.30;38.60;;;;;;5110030;28;20436;-91
2023/04/21 12:24:37;;;;;;;5.15;4.80;;;22.40;39.40;;;;;;5115103;28;20231;-88
2023/04/21 12:27:03;;;;;;;4.78;4.47;;;22.60;38.20;;;;;;5096961;28;20188;-87
2023/04/21 12:29:29;;;;;;;4.78;4.47;;;23.00;37.40;;;;;;5086157;28;20176;-90
2023/04/21 12:31:55;;;;;;;6.10;5.60;;;23.00;38.10;;;;;;5096360;28;20245;-89
2023/04/21 12:34:20;;;;;;;5.30;4.90;;;22.90;37.20;;;;;;5104533;28;20171;-88
2023/04/21 12:36:46;;;;;;;6.53;6.10;;;23.10;37.90;;;;;;5104092;28;20178;-89
2023/04/21 12:39:12;;;;;;;7.55;6.47;;;23.20;38.20;;;;;;5108963;28;20187;-89